Time;durP1;ratioP1;P1;durP2;ratioP2;P2;SDS_P1;SDS_P2;PMS_P1;PMS_P2;Temp;Humidity;BMP_temperature;BMP_pressure;BME280_temperature;BME280_humidity;BME280_pressure;Samples;Min_cycle;Max_cycle;Signal;HPM_P1;HPM_P2
2022/09/01 00:01:38;;;;;;;11.43;8.45;;;;;;;;;;5111193;28;20063;-71
2022/09/01 00:06:02;;;;;;;11.05;8.02;;;;;;;;;;5173301;27;20678;-71
2022/09/01 00:08:29;;;;;;;11.15;8.45;;;;;;;;;;5152354;27;20435;-71
2022/09/01 00:12:44;;;;;;;11.25;9.00;;;;;;;;;;5111174;27;20903;-73
2022/09/01 00:15:37;;;;;;;11.52;8.55;;;;;;;;;;5111205;27;20569;-71
2022/09/01 00:23:03;;;;;;;14.57;8.02;;;;;;;;;;5111776;27;20389;-72
2022/09/01 00:30:18;;;;;;;11.40;8.43;;;;;;;;;;5111379;27;20408;-71
2022/09/01 00:32:45;;;;;;;13.55;9.05;;;;;;;;;;5110819;28;20030;-72
2022/09/01 00:35:14;;;;;;;11.25;8.65;;;;;;;;;;5111095;28;20078;-72
2022/09/01 00:39:42;;;;;;;13.10;8.38;;;;;;;;;;5110804;27;20451;-72
2022/09/01 00:42:08;;;;;;;11.82;8.65;;;;;;;;;;5111108;28;20522;-71
2022/09/01 00:44:58;;;;;;;13.07;8.88;;;;;;;;;;5131776;27;20309;-72
2022/09/01 00:48:20;;;;;;;14.65;9.07;;;;;;;;;;5111301;27;20908;-71
2022/09/01 00:50:47;;;;;;;15.05;9.82;;;;;;;;;;5111101;28;20107;-71
2022/09/01 00:56:02;;;;;;;12.25;8.88;;;;;;;;;;5111724;27;20745;-72
2022/09/01 00:58:28;;;;;;;12.98;9.32;;;;;;;;;;5111126;28;20020;-72
2022/09/01 01:00:54;;;;;;;11.48;8.15;;;;;;;;;;5109397;28;20110;-72
2022/09/01 01:03:21;;;;;;;13.00;8.13;;;;;;;;;;5111119;28;20050;-72
2022/09/01 01:05:53;;;;;;;12.60;8.65;;;;;;;;;;5111067;28;20084;-72
2022/09/01 01:08:26;;;;;;;13.95;10.05;;;;;;;;;;5110648;28;20024;-71
2022/09/01 01:11:52;;;;;;;11.70;9.23;;;;;;;;;;5070948;28;20838;-72
2022/09/01 01:14:19;;;;;;;12.38;8.60;;;;;;;;;;5070396;28;20358;-72
2022/09/01 01:17:37;;;;;;;15.60;8.95;;;;;;;;;;5111624;27;20576;-71
2022/09/01 01:26:44;;;;;;;11.02;8.52;;;;;;;;;;5111858;27;20418;-71
2022/09/01 01:29:10;;;;;;;11.48;8.77;;;;;;;;;;5110706;28;20027;-71
2022/09/01 01:34:13;;;;;;;10.73;8.27;;;;;;;;;;5051058;28;20108;-71
2022/09/01 01:37:00;;;;;;;12.52;9.20;;;;;;;;;;5111654;27;20400;-72
2022/09/01 01:39:27;;;;;;;11.98;8.55;;;;;;;;;;5109815;28;20032;-72
2022/09/01 01:41:54;;;;;;;10.52;8.45;;;;;;;;;;5110591;28;20511;-73
2022/09/01 01:44:23;;;;;;;15.82;9.95;;;;;;;;;;5111257;28;20037;-72
2022/09/01 01:46:51;;;;;;;13.52;9.55;;;;;;;;;;5110929;28;20046;-72
2022/09/01 01:49:35;;;;;;;11.88;9.40;;;;;;;;;;5111291;27;20380;-71
2022/09/01 01:53:51;;;;;;;12.15;8.93;;;;;;;;;;5111582;27;20389;-71
2022/09/01 01:56:18;;;;;;;13.23;9.45;;;;;;;;;;5110874;28;20038;-71
2022/09/01 01:58:44;;;;;;;13.90;10.05;;;;;;;;;;5111358;28;20016;-71
2022/09/01 02:01:11;;;;;;;11.68;9.27;;;;;;;;;;5111015;28;20104;-71
2022/09/01 02:03:38;;;;;;;12.30;8.85;;;;;;;;;;5110602;28;20031;-71
2022/09/01 02:07:31;;;;;;;11.90;8.85;;;;;;;;;;5111996;27;20389;-71
2022/09/01 02:09:57;;;;;;;11.15;8.60;;;;;;;;;;5110848;28;20433;-71
2022/09/01 02:12:23;;;;;;;11.80;8.82;;;;;;;;;;5109793;28;20491;-71
2022/09/01 02:14:53;;;;;;;11.40;8.68;;;;;;;;;;5111040;28;20042;-71
2022/09/01 02:17:20;;;;;;;12.32;9.05;;;;;;;;;;5111047;28;20058;-72
2022/09/01 02:21:28;;;;;;;11.55;8.82;;;;;;;;;;5111448;27;20781;-71
2022/09/01 02:25:42;;;;;;;14.43;9.82;;;;;;;;;;5110846;27;20396;-71
2022/09/01 02:28:11;;;;;;;12.83;8.87;;;;;;;;;;5111181;28;20016;-73
2022/09/01 02:32:37;;;;;;;12.38;9.63;;;;;;;;;;5110848;27;20396;-71
2022/09/01 02:35:06;;;;;;;11.93;9.13;;;;;;;;;;5111323;28;20027;-71
2022/09/01 02:38:51;;;;;;;11.68;9.68;;;;;;;;;;5111014;27;20430;-71
2022/09/01 02:41:19;;;;;;;13.23;10.25;;;;;;;;;;5109845;28;20054;-72
2022/09/01 02:43:45;;;;;;;14.00;8.85;;;;;;;;;;5111145;28;20016;-72
2022/09/01 02:49:16;;;;;;;12.13;9.07;;;;;;;;;;5092021;27;20486;-71
2022/09/01 02:52:21;;;;;;;13.57;10.00;;;;;;;;;;5111457;27;20411;-71
2022/09/01 02:56:13;;;;;;;12.80;9.80;;;;;;;;;;5111787;27;20384;-72
2022/09/01 02:59:33;;;;;;;14.25;9.02;;;;;;;;;;5111298;27;20389;-72
2022/09/01 03:01:59;;;;;;;17.08;10.63;;;;;;;;;;5111202;28;20028;-73
2022/09/01 03:04:32;;;;;;;12.02;8.88;;;;;;;;;;5111300;28;20046;-72
2022/09/01 03:06:58;;;;;;;13.50;8.68;;;;;;;;;;5110835;28;20066;-72
2022/09/01 03:11:59;;;;;;;13.45;8.88;;;;;;;;;;5111514;27;20450;-72
2022/09/01 03:14:25;;;;;;;12.82;9.15;;;;;;;;;;5110685;28;20036;-72
2022/09/01 03:17:10;;;;;;;11.45;8.93;;;;;;;;;;5111868;27;20384;-72
2022/09/01 03:19:41;;;;;;;15.18;8.55;;;;;;;;;;5111153;28;20024;-72
2022/09/01 03:23:20;;;;;;;10.80;7.95;;;;;;;;;;5111748;27;20426;-71
2022/09/01 03:25:46;;;;;;;13.73;9.52;;;;;;;;;;5111596;28;20034;-71
2022/09/01 03:28:13;;;;;;;10.85;8.70;;;;;;;;;;5110606;28;20073;-71
2022/09/01 03:31:28;;;;;;;14.65;9.57;;;;;;;;;;5111686;27;20385;-72
2022/09/01 03:41:16;;;;;;;13.18;8.95;;;;;;;;;;5110945;27;20393;-71
2022/09/01 03:45:33;;;;;;;14.18;10.23;;;;;;;;;;5173341;27;20213;-71
2022/09/01 03:48:02;;;;;;;14.48;10.20;;;;;;;;;;5133733;27;20030;-71
2022/09/01 03:50:30;;;;;;;19.00;11.70;;;;;;;;;;5152514;27;20023;-72
2022/09/01 03:52:58;;;;;;;21.83;14.45;;;;;;;;;;5152148;27;20027;-72
2022/09/01 03:56:40;;;;;;;747.58;414.50;;;;;;;;;;5110720;27;20392;-72
2022/09/01 03:59:06;;;;;;;811.50;455.67;;;;;;;;;;5111053;28;20027;-72
2022/09/01 04:01:42;;;;;;;807.80;445.20;;;;;;;;;;5110987;28;20030;-71
2022/09/01 04:07:49;;;;;;;794.90;423.42;;;;;;;;;;5111797;27;20772;-72
2022/09/01 04:10:16;;;;;;;785.33;415.90;;;;;;;;;;5110617;28;20026;-72
2022/09/01 04:15:17;;;;;;;779.85;413.27;;;;;;;;;;5111461;27;20884;-72
2022/09/01 04:22:19;;;;;;;773.15;424.92;;;;;;;;;;5111026;27;20389;-72
2022/09/01 04:25:21;;;;;;;770.28;412.27;;;;;;;;;;5110770;27;20423;-71
2022/09/01 04:29:30;;;;;;;765.35;408.92;;;;;;;;;;5152869;27;20390;-72
2022/09/01 04:32:01;;;;;;;763.90;403.40;;;;;;;;;;5150536;27;20110;-72
2022/09/01 04:34:27;;;;;;;771.70;415.52;;;;;;;;;;5150864;27;20126;-72
2022/09/01 04:36:54;;;;;;;796.33;426.80;;;;;;;;;;5152137;27;20034;-73
2022/09/01 04:39:21;;;;;;;770.97;399.98;;;;;;;;;;5150231;27;20531;-72
2022/09/01 04:43:57;;;;;;;768.60;414.75;;;;;;;;;;5132108;27;20609;-73
2022/09/01 04:46:27;;;;;;;773.83;405.33;;;;;;;;;;5109488;28;20028;-73
2022/09/01 04:51:26;;;;;;;788.92;426.83;;;;;;;;;;5070636;28;20473;-72
2022/09/01 04:53:56;;;;;;;784.03;409.70;;;;;;;;;;5070470;28;20024;-72
2022/09/01 04:57:26;;;;;;;763.40;403.08;;;;;;;;;;5111341;27;20389;-72
2022/09/01 05:00:21;;;;;;;759.60;393.73;;;;;;;;;;5110944;27;20933;-72
2022/09/01 05:02:47;;;;;;;771.10;404.58;;;;;;;;;;5111184;28;20063;-72
2022/09/01 05:05:13;;;;;;;766.75;410.98;;;;;;;;;;5109700;28;20035;-72
2022/09/01 05:09:18;;;;;;;749.30;403.02;;;;;;;;;;5108378;27;20400;-70
2022/09/01 05:13:13;;;;;;;747.55;389.35;;;;;;;;;;5110262;27;20756;-71
2022/09/01 05:15:45;;;;;;;741.28;379.88;;;;;;;;;;5110741;28;20063;-72
2022/09/01 05:18:12;;;;;;;763.28;402.42;;;;;;;;;;5110443;28;20039;-70
2022/09/01 05:23:32;;;;;;;741.92;397.42;;;;;;;;;;5110924;27;20452;-71
2022/09/01 05:26:39;;;;;;;753.10;396.30;;;;;;;;;;5110723;27;20381;-69
2022/09/01 05:29:12;;;;;;;752.65;406.90;;;;;;;;;;5106500;28;20024;-70
2022/09/01 05:31:39;;;;;;;804.35;458.05;;;;;;;;;;5090662;28;20020;-68
2022/09/01 05:34:08;;;;;;;770.72;413.60;;;;;;;;;;5104171;28;20059;-68
2022/09/01 05:37:50;;;;;;;744.60;388.27;;;;;;;;;;5068395;28;20798;-68
2022/09/01 05:41:07;;;;;;;738.15;377.00;;;;;;;;;;5108077;27;20426;-69
2022/09/01 05:44:25;;;;;;;738.85;388.60;;;;;;;;;;5108376;27;20821;-69
2022/09/01 05:46:51;;;;;;;731.20;381.35;;;;;;;;;;5087446;28;20025;-70
2022/09/01 05:49:18;;;;;;;736.70;394.02;;;;;;;;;;5087116;28;20059;-69
2022/09/01 05:51:48;;;;;;;733.03;391.70;;;;;;;;;;5089125;28;20510;-69
2022/09/01 05:55:38;;;;;;;731.25;380.52;;;;;;;;;;5105696;27;20572;-68
2022/09/01 05:59:52;;;;;;;731.00;395.95;;;;;;;;;;5107226;27;20385;-69
2022/09/01 06:04:43;;;;;;;727.67;376.10;;;;;;;;;;5107045;27;20427;-68
2022/09/01 06:07:13;;;;;;;739.65;388.10;;;;;;;;;;5107416;28;20027;-68
2022/09/01 06:09:44;;;;;;;735.88;384.48;;;;;;;;;;5107832;28;20038;-68
2022/09/01 06:12:22;;;;;;;747.03;414.38;;;;;;;;;;5108814;28;20024;-68
2022/09/01 06:15:31;;;;;;;736.88;396.67;;;;;;;;;;5109422;27;20482;-71
2022/09/01 06:17:57;;;;;;;739.22;397.52;;;;;;;;;;5109651;28;20481;-71
2022/09/01 06:20:23;;;;;;;738.80;403.42;;;;;;;;;;5110306;28;20069;-70
2022/09/01 06:24:17;;;;;;;728.85;384.30;;;;;;;;;;5110263;27;20400;-68
2022/09/01 06:28:39;;;;;;;728.40;397.17;;;;;;;;;;5110229;27;20389;-69
2022/09/01 06:32:25;;;;;;;729.47;406.92;;;;;;;;;;5108841;27;20400;-69
2022/09/01 06:36:08;;;;;;;725.45;383.33;;;;;;;;;;5067888;28;20449;-68
2022/09/01 06:38:35;;;;;;;722.55;390.17;;;;;;;;;;5051898;28;20021;-68
2022/09/01 06:41:03;;;;;;;734.30;396.77;;;;;;;;;;5053548;28;20065;-68
2022/09/01 06:48:04;;;;;;;715.22;386.98;;;;;;;;;;5110817;27;20311;-68
2022/09/01 06:51:30;;;;;;;732.75;406.85;;;;;;;;;;5108256;27;20776;-68
2022/09/01 06:56:05;;;;;;;732.08;386.88;;;;;;;;;;5108622;27;20401;-68
2022/09/01 06:58:32;;;;;;;741.92;406.92;;;;;;;;;;5107727;28;20024;-68
2022/09/01 07:02:40;;;;;;;741.78;410.42;;;;;;;;;;5109325;27;20749;-67
2022/09/01 07:05:06;;;;;;;740.72;397.17;;;;;;;;;;5109716;28;20387;-67
2022/09/01 07:07:33;;;;;;;747.80;414.05;;;;;;;;;;5108704;28;20070;-68
2022/09/01 07:09:59;;;;;;;757.40;420.05;;;;;;;;;;5108997;28;20055;-68
2022/09/01 07:13:08;;;;;;;757.60;422.73;;;;;;;;;;5108333;27;20444;-68
2022/09/01 07:15:39;;;;;;;791.70;443.30;;;;;;;;;;5089288;28;20090;-68
2022/09/01 07:18:05;;;;;;;799.58;454.25;;;;;;;;;;5088598;28;20044;-68
2022/09/01 07:20:37;;;;;;;796.28;448.63;;;;;;;;;;5092916;28;20046;-69
2022/09/01 07:23:03;;;;;;;787.17;441.67;;;;;;;;;;5099771;28;20126;-69
2022/09/01 07:25:31;;;;;;;787.45;444.42;;;;;;;;;;5098026;28;20024;-69
2022/09/01 07:27:58;;;;;;;787.03;443.58;;;;;;;;;;5087854;28;20158;-67
2022/09/01 07:30:25;;;;;;;784.17;441.80;;;;;;;;;;5086449;28;20034;-69
2022/09/01 07:32:51;;;;;;;778.42;441.33;;;;;;;;;;5084901;28;20438;-70
2022/09/01 07:35:20;;;;;;;769.70;430.02;;;;;;;;;;5085824;28;20491;-68
2022/09/01 07:39:18;;;;;;;769.17;433.40;;;;;;;;;;5046769;28;20486;-67
2022/09/01 07:43:51;;;;;;;14.13;9.98;;;;;;;;;;5068605;28;20614;-68
2022/09/01 07:46:18;;;;;;;12.35;8.85;;;;;;;;;;5068474;28;20100;-69
2022/09/01 07:48:47;;;;;;;12.88;9.00;;;;;;;;;;5069785;28;20130;-67
2022/09/01 07:52:31;;;;;;;12.23;8.25;;;;;;;;;;5109345;27;20413;-71
2022/09/01 07:54:57;;;;;;;14.02;9.50;;;;;;;;;;5104010;28;20023;-69
2022/09/01 07:57:23;;;;;;;20.52;10.15;;;;;;;;;;5107827;28;20024;-72
2022/09/01 08:01:18;;;;;;;11.73;8.68;;;;;;;;;;5066954;28;20500;-70
2022/09/01 08:03:50;;;;;;;11.68;8.95;;;;;;;;;;5068884;28;20481;-72
2022/09/01 08:11:16;;;;;;;12.98;10.10;;;;;;;;;;5108975;27;20133;-70
2022/09/01 08:13:43;;;;;;;12.80;9.20;;;;;;;;;;5086548;28;20028;-72
2022/09/01 08:16:10;;;;;;;12.57;9.27;;;;;;;;;;5088105;28;20020;-70
2022/09/01 08:18:36;;;;;;;10.85;7.53;;;;;;;;;;5087806;28;20472;-71
2022/09/01 08:21:10;;;;;;;18.23;9.27;;;;;;;;;;5089488;28;20376;-71
2022/09/01 08:23:57;;;;;;;11.90;8.60;;;;;;;;;;5110588;27;20958;-71
2022/09/01 08:26:24;;;;;;;11.82;8.90;;;;;;;;;;5109793;28;20024;-71
2022/09/01 08:30:34;;;;;;;10.20;8.52;;;;;;;;;;5067204;28;20423;-71
2022/09/01 08:34:04;;;;;;;10.43;8.05;;;;;;;;;;5108552;27;20392;-70
2022/09/01 08:36:30;;;;;;;11.30;7.97;;;;;;;;;;5108643;28;20089;-73
2022/09/01 08:38:56;;;;;;;12.05;8.07;;;;;;;;;;5107657;28;20476;-73
2022/09/01 08:41:28;;;;;;;13.02;7.97;;;;;;;;;;5102125;28;20033;-73
2022/09/01 08:43:58;;;;;;;11.45;7.35;;;;;;;;;;5101795;28;20431;-71
2022/09/01 08:46:29;;;;;;;13.18;8.13;;;;;;;;;;5090097;28;20476;-70
2022/09/01 08:48:59;;;;;;;10.60;7.82;;;;;;;;;;5091136;28;20492;-70
2022/09/01 08:51:51;;;;;;;14.40;7.55;;;;;;;;;;5108970;28;20024;-70
2022/09/01 08:54:26;;;;;;;11.35;7.68;;;;;;;;;;5083641;28;20381;-70
2022/09/01 08:57:04;;;;;;;9.98;6.70;;;;;;;;;;5104047;28;20019;-72
2022/09/01 08:59:30;;;;;;;9.70;7.40;;;;;;;;;;5110209;28;20498;-71
2022/09/01 09:01:56;;;;;;;13.43;7.55;;;;;;;;;;5110409;28;20476;-73
2022/09/01 09:04:31;;;;;;;10.48;7.32;;;;;;;;;;5110122;28;20028;-72
2022/09/01 09:09:06;;;;;;;15.95;8.27;;;;;;;;;;5110997;27;20843;-72
2022/09/01 09:11:32;;;;;;;;;;;;;;;;;;5111431;28;20028;-72
2022/09/01 09:14:02;;;;;;;10.90;7.72;;;;;;;;;;5110674;28;19904;-73
2022/09/01 09:16:31;;;;;;;11.10;7.85;;;;;;;;;;5109864;28;20518;-73
2022/09/01 09:19:03;;;;;;;14.13;8.18;;;;;;;;;;5110260;28;20387;-73
2022/09/01 09:23:12;;;;;;;11.57;7.60;;;;;;;;;;5172542;27;20117;-72
2022/09/01 09:25:38;;;;;;;12.15;7.72;;;;;;;;;;5151574;27;20098;-72
2022/09/01 09:28:04;;;;;;;12.43;7.82;;;;;;;;;;5133895;27;20031;-71
2022/09/01 09:30:31;;;;;;;11.52;7.47;;;;;;;;;;5151807;27;20023;-71
2022/09/01 09:33:04;;;;;;;11.63;7.60;;;;;;;;;;5150806;27;20461;-70
2022/09/01 09:35:32;;;;;;;15.45;8.95;;;;;;;;;;5151947;27;20023;-70
2022/09/01 09:38:27;;;;;;;10.85;7.63;;;;;;;;;;5151817;27;20102;-71
2022/09/01 09:41:00;;;;;;;11.90;7.80;;;;;;;;;;5141758;27;20153;-73
2022/09/01 09:43:28;;;;;;;10.85;7.05;;;;;;;;;;5132911;27;20027;-71
2022/09/01 09:46:15;;;;;;;10.73;7.82;;;;;;;;;;5133005;27;20543;-71
2022/09/01 09:48:41;;;;;;;11.60;7.13;;;;;;;;;;5150956;27;20102;-71
2022/09/01 09:51:21;;;;;;;12.50;7.28;;;;;;;;;;5151354;27;20054;-72
2022/09/01 09:53:47;;;;;;;11.57;6.80;;;;;;;;;;5151324;27;20408;-73
2022/09/01 09:56:24;;;;;;;10.25;6.88;;;;;;;;;;5133080;27;20462;-73
2022/09/01 09:58:52;;;;;;;12.02;7.68;;;;;;;;;;5151625;27;20034;-73
2022/09/01 10:01:22;;;;;;;11.82;8.02;;;;;;;;;;5150939;27;20535;-73
2022/09/01 10:03:53;;;;;;;11.85;8.15;;;;;;;;;;5151230;27;20027;-73
2022/09/01 10:06:34;;;;;;;10.00;7.55;;;;;;;;;;5151208;27;20059;-71
2022/09/01 10:09:01;;;;;;;15.50;8.43;;;;;;;;;;5132238;27;20487;-71
2022/09/01 10:11:31;;;;;;;9.48;7.07;;;;;;;;;;5151128;27;20031;-71
2022/09/01 10:13:57;;;;;;;9.63;7.00;;;;;;;;;;5151099;27;20519;-73
2022/09/01 10:16:27;;;;;;;10.48;7.95;;;;;;;;;;5150553;27;20051;-74
2022/09/01 10:18:58;;;;;;;11.57;7.43;;;;;;;;;;5151142;27;20038;-74
2022/09/01 10:21:28;;;;;;;10.67;7.23;;;;;;;;;;5150909;27;20061;-75
2022/09/01 10:23:54;;;;;;;10.05;6.55;;;;;;;;;;5150698;27;20023;-76
2022/09/01 10:26:27;;;;;;;9.55;7.20;;;;;;;;;;5150985;27;20023;-73
2022/09/01 10:29:06;;;;;;;10.77;6.90;;;;;;;;;;5150816;27;20042;-74
2022/09/01 10:31:33;;;;;;;11.80;7.53;;;;;;;;;;5150694;27;20015;-76
2022/09/01 10:34:01;;;;;;;9.18;6.38;;;;;;;;;;5139501;27;20026;-77
2022/09/01 10:36:27;;;;;;;10.98;7.60;;;;;;;;;;5136606;27;20046;-73
2022/09/01 10:38:55;;;;;;;10.57;7.28;;;;;;;;;;5136760;27;20575;-74
2022/09/01 10:41:39;;;;;;;9.43;6.38;;;;;;;;;;5136540;27;20023;-73
2022/09/01 10:44:09;;;;;;;9.82;6.55;;;;;;;;;;5136206;27;20032;-73
2022/09/01 10:46:35;;;;;;;10.55;6.50;;;;;;;;;;5135948;27;20019;-73
2022/09/01 10:49:02;;;;;;;11.07;6.82;;;;;;;;;;5134967;27;20085;-73
2022/09/01 10:51:28;;;;;;;8.93;6.18;;;;;;;;;;5110269;27;20038;-73
2022/09/01 10:53:56;;;;;;;10.48;6.35;;;;;;;;;;5115365;28;20031;-73
2022/09/01 10:56:40;;;;;;;11.57;6.22;;;;;;;;;;5114440;28;20023;-74
2022/09/01 10:59:24;;;;;;;10.38;5.85;;;;;;;;;;5114765;28;20137;-73
2022/09/01 11:01:51;;;;;;;9.15;5.72;;;;;;;;;;5098681;27;20030;-75
2022/09/01 11:04:18;;;;;;;10.13;6.10;;;;;;;;;;5110241;27;20034;-73
2022/09/01 11:06:44;;;;;;;11.27;6.43;;;;;;;;;;5114347;28;20495;-74
2022/09/01 11:09:29;;;;;;;10.77;5.72;;;;;;;;;;5094760;28;20472;-73
2022/09/01 11:11:55;;;;;;;10.68;6.40;;;;;;;;;;5094307;28;20072;-77
2022/09/01 11:14:25;;;;;;;10.95;5.75;;;;;;;;;;5111985;28;20035;-76
2022/09/01 11:17:10;;;;;;;9.35;5.70;;;;;;;;;;5114554;27;20023;-73
2022/09/01 11:19:36;;;;;;;10.27;6.30;;;;;;;;;;5099274;28;20629;-75
2022/09/01 11:22:09;;;;;;;9.25;5.88;;;;;;;;;;5090542;28;20078;-73
2022/09/01 11:24:38;;;;;;;10.45;5.57;;;;;;;;;;5089029;28;20228;-76
2022/09/01 11:30:08;;;;;;;8.35;5.57;;;;;;;;;;5095193;28;20085;-73
2022/09/01 11:32:36;;;;;;;10.68;5.30;;;;;;;;;;5094055;28;20028;-73
2022/09/01 11:35:12;;;;;;;8.35;5.32;;;;;;;;;;5094765;28;20022;-71
2022/09/01 11:37:39;;;;;;;7.95;5.13;;;;;;;;;;5094803;28;20375;-73
2022/09/01 11:40:09;;;;;;;10.55;5.80;;;;;;;;;;5093150;28;20020;-76
2022/09/01 11:42:42;;;;;;;8.88;5.95;;;;;;;;;;5096841;28;20059;-74
2022/09/01 11:45:19;;;;;;;8.93;5.50;;;;;;;;;;5102766;28;20123;-76
2022/09/01 11:47:48;;;;;;;10.00;5.60;;;;;;;;;;5092899;28;20035;-76
2022/09/01 11:50:17;;;;;;;13.00;6.85;;;;;;;;;;5094512;28;20048;-75
2022/09/01 11:52:51;;;;;;;8.02;5.25;;;;;;;;;;5094204;28;20028;-79
2022/09/01 11:55:27;;;;;;;9.32;5.97;;;;;;;;;;5093199;28;20024;-80
2022/09/01 11:57:53;;;;;;;10.50;5.20;;;;;;;;;;5091102;28;20060;-83
2022/09/01 12:00:25;;;;;;;7.90;5.25;;;;;;;;;;5092542;28;20016;-79
2022/09/01 12:02:53;;;;;;;;;;;;;;;;;;5093299;28;20395;-83
2022/09/01 12:05:38;;;;;;;9.02;4.95;;;;;;;;;;5095833;28;20350;-80
2022/09/01 12:08:17;;;;;;;7.95;4.80;;;;;;;;;;5102079;28;20077;-79
2022/09/01 12:10:44;;;;;;;9.07;5.10;;;;;;;;;;5091265;28;20063;-78
2022/09/01 12:13:11;;;;;;;9.32;5.75;;;;;;;;;;5092194;28;20012;-75
2022/09/01 12:15:41;;;;;;;8.20;4.80;;;;;;;;;;5111603;28;20035;-77
2022/09/01 12:18:21;;;;;;;9.10;4.80;;;;;;;;;;5112820;28;20020;-76
2022/09/01 12:20:48;;;;;;;8.65;4.70;;;;;;;;;;5115213;27;20042;-76
2022/09/01 12:23:19;;;;;;;9.00;4.32;;;;;;;;;;5135167;27;20412;-76
2022/09/01 12:25:45;;;;;;;7.97;4.70;;;;;;;;;;5135082;27;20071;-76
2022/09/01 12:28:11;;;;;;;6.65;4.57;;;;;;;;;;5134224;27;20493;-76
2022/09/01 12:30:39;;;;;;;6.88;4.20;;;;;;;;;;5134283;27;20027;-77
2022/09/01 12:33:06;;;;;;;6.72;4.15;;;;;;;;;;5134906;27;20026;-76
2022/09/01 12:35:33;;;;;;;6.95;4.30;;;;;;;;;;5115829;27;20114;-77
2022/09/01 12:38:17;;;;;;;10.52;4.60;;;;;;;;;;5134931;27;20471;-78
2022/09/01 12:40:44;;;;;;;6.70;4.40;;;;;;;;;;5135117;27;20094;-78
2022/09/01 12:43:10;;;;;;;9.77;5.15;;;;;;;;;;5134583;27;20475;-78
2022/09/01 12:45:38;;;;;;;7.55;4.40;;;;;;;;;;5116531;27;20368;-77
2022/09/01 12:48:04;;;;;;;11.15;4.85;;;;;;;;;;5134779;27;20033;-77
2022/09/01 12:50:30;;;;;;;9.38;4.72;;;;;;;;;;5134643;27;20023;-77
2022/09/01 12:53:03;;;;;;;8.68;4.43;;;;;;;;;;5134797;27;20023;-78
2022/09/01 12:55:36;;;;;;;8.02;4.40;;;;;;;;;;5134427;27;20052;-78
2022/09/01 12:58:04;;;;;;;8.23;5.00;;;;;;;;;;5134237;27;20489;-79
2022/09/01 13:00:32;;;;;;;6.75;4.13;;;;;;;;;;5134665;27;20027;-78
2022/09/01 13:03:04;;;;;;;7.38;4.10;;;;;;;;;;5134423;27;20038;-79
2022/09/01 13:05:33;;;;;;;13.48;4.70;;;;;;;;;;5134268;27;20023;-78
2022/09/01 13:08:10;;;;;;;8.18;4.50;;;;;;;;;;5134710;27;20027;-78
2022/09/01 13:10:38;;;;;;;8.75;4.38;;;;;;;;;;5134707;27;20059;-77
2022/09/01 13:13:05;;;;;;;6.25;4.32;;;;;;;;;;5134728;27;20072;-77
2022/09/01 13:15:32;;;;;;;7.10;4.25;;;;;;;;;;5134473;27;20023;-77
2022/09/01 13:17:58;;;;;;;7.85;4.05;;;;;;;;;;5115670;28;20027;-77
2022/09/01 13:20:24;;;;;;;6.03;3.90;;;;;;;;;;5134538;28;20027;-77
2022/09/01 13:22:51;;;;;;;6.18;4.07;;;;;;;;;;5134514;28;20122;-77
2022/09/01 13:25:19;;;;;;;7.85;3.97;;;;;;;;;;5134188;28;20470;-76
2022/09/01 13:27:46;;;;;;;7.13;3.90;;;;;;;;;;5115929;28;20033;-77
2022/09/01 13:30:16;;;;;;;7.03;4.30;;;;;;;;;;5134204;28;20012;-77
2022/09/01 13:32:43;;;;;;;6.05;3.45;;;;;;;;;;5133883;28;20019;-77
2022/09/01 13:35:10;;;;;;;5.80;3.83;;;;;;;;;;5134614;28;20024;-77
2022/09/01 13:37:36;;;;;;;5.95;3.90;;;;;;;;;;5134235;28;20467;-77
2022/09/01 13:40:04;;;;;;;8.32;3.90;;;;;;;;;;5116137;28;20507;-78
2022/09/01 13:42:30;;;;;;;6.00;3.90;;;;;;;;;;5115952;28;20445;-76
2022/09/01 13:44:56;;;;;;;7.97;3.83;;;;;;;;;;5134514;28;20058;-76
2022/09/01 13:47:23;;;;;;;5.88;3.60;;;;;;;;;;5115530;28;20539;-77
2022/09/01 13:49:49;;;;;;;5.78;3.75;;;;;;;;;;5134196;28;20015;-77
2022/09/01 13:52:15;;;;;;;6.97;3.80;;;;;;;;;;5134391;28;20046;-78
2022/09/01 13:54:44;;;;;;;7.78;4.10;;;;;;;;;;5133852;28;20536;-77
2022/09/01 13:57:13;;;;;;;5.63;3.40;;;;;;;;;;5134469;28;20038;-77
2022/09/01 13:59:40;;;;;;;6.35;3.35;;;;;;;;;;5134047;28;20061;-77
2022/09/01 14:02:07;;;;;;;5.50;2.88;;;;;;;;;;5133767;28;20035;-77
2022/09/01 14:04:33;;;;;;;5.97;2.88;;;;;;;;;;5134206;28;20019;-78
2022/09/01 14:06:59;;;;;;;5.85;3.17;;;;;;;;;;5133994;27;20027;-78
2022/09/01 14:09:25;;;;;;;5.35;3.35;;;;;;;;;;5118294;27;20023;-77
2022/09/01 14:11:53;;;;;;;4.75;3.28;;;;;;;;;;5137958;27;20382;-76
2022/09/01 14:14:19;;;;;;;5.68;3.13;;;;;;;;;;5137372;27;20019;-77
2022/09/01 14:16:45;;;;;;;5.00;3.15;;;;;;;;;;5137730;27;20406;-77
2022/09/01 14:19:12;;;;;;;6.07;3.45;;;;;;;;;;5137661;27;20027;-76
2022/09/01 14:21:38;;;;;;;6.10;3.15;;;;;;;;;;5118692;27;20126;-77
2022/09/01 14:24:05;;;;;;;5.40;3.22;;;;;;;;;;5137624;27;20080;-77
2022/09/01 14:26:31;;;;;;;11.10;3.33;;;;;;;;;;5137552;27;20030;-76
2022/09/01 14:28:59;;;;;;;6.47;3.90;;;;;;;;;;5137631;27;20023;-77
2022/09/01 14:31:25;;;;;;;3.60;3.03;;;;;;;;;;5138067;27;20443;-76
2022/09/01 14:33:51;;;;;;;6.20;3.10;;;;;;;;;;5137801;27;20035;-77
2022/09/01 14:36:20;;;;;;;5.57;3.33;;;;;;;;;;5137563;27;20463;-76
2022/09/01 14:38:47;;;;;;;6.65;3.20;;;;;;;;;;5137849;27;20098;-76
2022/09/01 14:41:14;;;;;;;8.85;3.63;;;;;;;;;;5137441;27;20061;-75
2022/09/01 14:43:41;;;;;;;4.63;3.10;;;;;;;;;;5137099;27;20428;-77
2022/09/01 14:46:09;;;;;;;5.45;3.50;;;;;;;;;;5119000;27;20030;-75
2022/09/01 14:48:36;;;;;;;5.90;3.40;;;;;;;;;;5137300;27;20019;-75
2022/09/01 14:51:03;;;;;;;8.15;4.00;;;;;;;;;;5136736;27;20025;-75
2022/09/01 14:53:30;;;;;;;8.60;3.75;;;;;;;;;;5137057;27;20102;-74
2022/09/01 14:55:59;;;;;;;7.93;4.18;;;;;;;;;;5137616;27;20032;-75
2022/09/01 14:58:26;;;;;;;5.05;3.08;;;;;;;;;;5136883;27;20084;-76
2022/09/01 15:00:55;;;;;;;8.70;3.90;;;;;;;;;;5137355;27;20019;-76
2022/09/01 15:03:21;;;;;;;7.95;3.80;;;;;;;;;;5137102;27;20560;-75
2022/09/01 15:05:48;;;;;;;5.63;3.70;;;;;;;;;;5142098;27;20079;-76
2022/09/01 15:08:15;;;;;;;5.07;3.40;;;;;;;;;;5122584;27;20031;-74
2022/09/01 15:10:41;;;;;;;7.07;3.88;;;;;;;;;;5139481;27;20026;-76
2022/09/01 15:13:07;;;;;;;7.40;4.43;;;;;;;;;;5136629;27;20446;-75
2022/09/01 15:15:34;;;;;;;8.50;4.15;;;;;;;;;;5136560;27;20035;-77
2022/09/01 15:18:00;;;;;;;7.95;4.03;;;;;;;;;;5136285;27;20019;-76
2022/09/01 15:20:46;;;;;;;6.95;4.10;;;;;;;;;;5136450;27;20076;-76
2022/09/01 15:23:21;;;;;;;7.93;4.22;;;;;;;;;;5136397;27;20088;-77
2022/09/01 15:25:47;;;;;;;6.47;4.13;;;;;;;;;;5137231;27;20027;-77
2022/09/01 15:28:13;;;;;;;6.95;3.90;;;;;;;;;;5119205;27;20054;-76
2022/09/01 15:30:40;;;;;;;7.03;4.13;;;;;;;;;;5136476;27;20020;-76
2022/09/01 15:33:07;;;;;;;6.90;3.85;;;;;;;;;;5117520;27;20043;-77
2022/09/01 15:35:33;;;;;;;6.95;3.85;;;;;;;;;;5136437;27;20061;-77
2022/09/01 15:37:59;;;;;;;9.10;4.15;;;;;;;;;;5136662;27;20029;-77
2022/09/01 15:40:26;;;;;;;6.38;3.60;;;;;;;;;;5135664;27;20488;-76
2022/09/01 15:42:53;;;;;;;8.70;3.90;;;;;;;;;;5136030;27;20031;-76
2022/09/01 15:45:20;;;;;;;7.85;4.20;;;;;;;;;;5117578;27;20046;-76
2022/09/01 15:47:49;;;;;;;5.43;3.83;;;;;;;;;;5135895;27;20023;-76
2022/09/01 15:50:20;;;;;;;9.30;4.40;;;;;;;;;;5136162;27;20064;-76
2022/09/01 15:52:48;;;;;;;9.40;4.63;;;;;;;;;;5135539;27;20080;-76
2022/09/01 15:55:15;;;;;;;10.35;4.78;;;;;;;;;;5135936;27;20034;-76
2022/09/01 15:57:41;;;;;;;9.30;4.85;;;;;;;;;;5135810;27;20057;-76
2022/09/01 16:00:08;;;;;;;9.52;4.57;;;;;;;;;;5135421;27;20479;-77
2022/09/01 16:02:34;;;;;;;8.07;4.47;;;;;;;;;;5135557;27;20031;-76
2022/09/01 16:05:00;;;;;;;9.25;4.53;;;;;;;;;;5135908;27;20497;-77
2022/09/01 16:07:26;;;;;;;10.85;6.15;;;;;;;;;;5116710;27;20027;-75
2022/09/01 16:09:56;;;;;;;13.32;5.95;;;;;;;;;;5135523;27;20019;-76
2022/09/01 16:12:23;;;;;;;9.25;5.50;;;;;;;;;;5135461;27;20019;-76
2022/09/01 16:14:51;;;;;;;11.13;5.75;;;;;;;;;;5116569;27;20059;-76
2022/09/01 16:17:22;;;;;;;9.23;5.65;;;;;;;;;;5135497;27;20054;-76
2022/09/01 16:19:48;;;;;;;10.50;5.95;;;;;;;;;;5135413;27;20026;-77
2022/09/01 16:22:19;;;;;;;13.32;6.20;;;;;;;;;;5134439;27;20051;-74
2022/09/01 16:24:48;;;;;;;8.65;5.32;;;;;;;;;;5135191;27;20033;-76
2022/09/01 16:27:16;;;;;;;8.20;5.00;;;;;;;;;;5134967;27;20015;-75
2022/09/01 16:30:51;;;;;;;10.45;6.60;;;;;;;;;;5070497;28;20391;-73
2022/09/01 16:33:20;;;;;;;12.23;7.63;;;;;;;;;;5070584;28;20025;-75
2022/09/01 16:36:44;;;;;;;9.90;6.57;;;;;;;;;;5070168;28;20797;-73
2022/09/01 16:39:29;;;;;;;11.38;7.00;;;;;;;;;;5070591;28;20473;-75
2022/09/01 16:42:14;;;;;;;11.00;6.90;;;;;;;;;;5069997;28;20381;-76
2022/09/01 16:44:46;;;;;;;10.60;6.25;;;;;;;;;;5070645;28;20108;-75
2022/09/01 16:47:18;;;;;;;9.32;6.03;;;;;;;;;;5070658;28;20024;-73
2022/09/01 16:49:49;;;;;;;10.95;6.57;;;;;;;;;;5070072;28;20021;-74
2022/09/01 16:52:28;;;;;;;9.52;6.10;;;;;;;;;;5070512;28;20096;-75